Airport View

Enter AWOS ICAO identifier for current METAR.

ex. KFNL

KCEF 262256Z 25005KT 10SM FEW050 03/M04 A2969 RMK AO2A SLP062 T00341036

26 Jan 2020 23:25

Other Area AWOS: KBAF - KBDL - KORE - KHFD

TAF KCEF 261900Z 2619/2801 27009KT 9999 BKN020 BKN100 QNH2968INS BECMG 2621/2622 21006KT 9999 BKN030 BKN100 QNH2963INS BECMG 2711/2712 22006KT 9999 SCT035 BKN080 QNH2961INS BECMG 2717/2718 27009KT 9999 BKN030 BKN100 QNH2958INS TEMPO 2719/2722 30015G25KT 530004 BECMG 2721/2722 27006KT 9999 BKN025 QNH2963INS TX06/2619Z TNM02/2711Z